Time;durP1;ratioP1;P1;durP2;ratioP2;P2;SDS_P1;SDS_P2;PMS_P1;PMS_P2;Temp;Humidity;BMP_temperature;BMP_pressure;BME280_temperature;BME280_humidity;BME280_pressure;Samples;Min_cycle;Max_cycle;Signal;HPM_P1;HPM_P2
2021/11/27 00:01:53;;;;;;;9.05;2.60;;;;;;;-148.56;100.00;61375.16;5026843;28;20025;-30
2021/11/27 00:04:18;;;;;;;7.15;2.25;;;;;;;-148.56;100.00;61375.16;5037539;28;21903;-29
2021/11/27 00:06:44;;;;;;;6.50;2.35;;;;;;;-148.56;100.00;61375.16;5042629;28;20029;-31
2021/11/27 00:09:10;;;;;;;8.05;2.63;;;;;;;-148.56;100.00;61375.16;5037484;28;20025;-29
2021/11/27 00:11:36;;;;;;;7.25;2.50;;;;;;;-148.56;100.00;61375.16;5018852;28;20539;-30
2021/11/27 00:14:01;;;;;;;4.10;2.30;;;;;;;-148.56;100.00;61375.16;5016200;28;20259;-29
2021/11/27 00:16:27;;;;;;;7.05;2.15;;;;;;;-148.56;100.00;61375.16;5022356;28;21900;-30
2021/11/27 00:18:52;;;;;;;6.13;2.30;;;;;;;-148.56;100.00;61375.16;5042251;28;20086;-27
2021/11/27 00:21:20;;;;;;;3.90;2.00;;;;;;;-148.56;100.00;61375.16;5023311;28;20021;-27
2021/11/27 00:23:46;;;;;;;4.78;2.35;;;;;;;-148.56;100.00;61375.16;5025305;28;20515;-30
2021/11/27 00:26:12;;;;;;;25.88;2.67;;;;;;;-148.56;100.00;61375.16;5022004;28;20033;-28
2021/11/27 00:28:38;;;;;;;4.40;2.00;;;;;;;-148.56;100.00;61375.16;5022583;28;20137;-27
2021/11/27 00:31:11;;;;;;;4.45;2.20;;;;;;;-148.56;100.00;61375.16;5021912;28;20665;-34
2021/11/27 00:33:36;;;;;;;5.93;2.28;;;;;;;-148.56;100.00;61375.16;5019331;28;20108;-33
2021/11/27 00:36:02;;;;;;;6.22;2.15;;;;;;;-148.56;100.00;61375.16;5022520;28;20421;-28
2021/11/27 00:38:27;;;;;;;4.97;2.05;;;;;;;-148.56;100.00;61375.16;5021269;28;20845;-32
2021/11/27 00:40:53;;;;;;;7.35;1.88;;;;;;;-148.56;100.00;61375.16;5023670;28;20333;-29
2021/11/27 00:43:18;;;;;;;3.83;2.10;;;;;;;-148.56;100.00;61375.16;5022470;28;20115;-31
2021/11/27 00:45:44;;;;;;;14.15;2.35;;;;;;;-148.56;100.00;61375.16;5015625;28;20578;-30
2021/11/27 00:48:10;;;;;;;5.15;2.20;;;;;;;-148.56;100.00;61375.16;5035014;28;20128;-29
2021/11/27 00:50:39;;;;;;;7.65;2.28;;;;;;;-148.56;100.00;61375.16;5015161;28;20029;-27
2021/11/27 00:53:05;;;;;;;4.72;1.92;;;;;;;-148.56;100.00;61375.16;5016281;28;20436;-30
2021/11/27 00:55:31;;;;;;;4.57;2.00;;;;;;;-148.56;100.00;61375.16;5014057;28;20141;-32
2021/11/27 00:57:56;;;;;;;3.83;2.03;;;;;;;-148.56;100.00;61375.16;5018581;28;20025;-29
2021/11/27 01:00:24;;;;;;;3.90;1.70;;;;;;;-148.56;100.00;61375.16;5015706;28;20064;-28
2021/11/27 01:02:49;;;;;;;5.78;1.80;;;;;;;-148.56;100.00;61375.16;5016922;28;20404;-30
2021/11/27 01:05:15;;;;;;;6.10;1.77;;;;;;;-148.56;100.00;61375.16;5028850;28;20025;-30
2021/11/27 01:07:40;;;;;;;5.15;1.70;;;;;;;-148.56;100.00;61375.16;5015897;28;20037;-29
2021/11/27 01:10:09;;;;;;;4.90;1.70;;;;;;;-148.56;100.00;61375.16;5031867;28;20086;-28
2021/11/27 01:12:35;;;;;;;3.40;1.95;;;;;;;-148.56;100.00;61375.16;5019053;28;20523;-28
2021/11/27 01:15:00;;;;;;;4.63;1.92;;;;;;;-148.56;100.00;61375.16;5027975;28;20041;-31
2021/11/27 01:17:26;;;;;;;5.15;1.90;;;;;;;-148.56;100.00;61375.16;5026561;28;20025;-30
2021/11/27 01:19:51;;;;;;;3.60;1.70;;;;;;;-148.56;100.00;61375.16;5042788;28;20996;-32
2021/11/27 01:22:17;;;;;;;3.30;1.50;;;;;;;-148.56;100.00;61375.16;5026684;28;20024;-34
2021/11/27 01:24:43;;;;;;;4.15;1.52;;;;;;;-148.56;100.00;61375.16;5024182;28;20107;-29
2021/11/27 01:27:10;;;;;;;4.60;1.95;;;;;;;-148.56;100.00;61375.16;5025242;28;20029;-31
2021/11/27 01:29:39;;;;;;;2.45;1.60;;;;;;;-148.56;100.00;61375.16;5024087;28;20608;-32
2021/11/27 01:32:06;;;;;;;4.28;1.50;;;;;;;-148.56;100.00;61375.16;5025636;28;20037;-29
2021/11/27 01:34:32;;;;;;;2.95;1.48;;;;;;;-148.56;100.00;61375.16;5026309;28;20585;-32
2021/11/27 01:36:57;;;;;;;4.22;1.63;;;;;;;-148.56;100.00;61375.16;5024928;28;20034;-29
2021/11/27 01:39:23;;;;;;;4.20;1.58;;;;;;;-148.56;100.00;61375.16;5024580;28;20916;-31
2021/11/27 01:41:48;;;;;;;2.15;1.20;;;;;;;-148.56;100.00;61375.16;5026698;28;20034;-31
2021/11/27 01:44:13;;;;;;;3.38;1.83;;;;;;;-148.56;100.00;61375.16;5023035;28;20028;-29
2021/11/27 01:46:39;;;;;;;4.53;1.60;;;;;;;-148.56;100.00;61375.16;5019907;28;20485;-32
2021/11/27 01:49:05;;;;;;;2.72;1.20;;;;;;;-148.56;100.00;61375.16;5027012;28;20116;-27
2021/11/27 01:51:31;;;;;;;4.18;1.60;;;;;;;-148.56;100.00;61375.16;5033498;28;20040;-31
2021/11/27 01:53:59;;;;;;;2.92;1.55;;;;;;;-148.56;100.00;61375.16;5026512;28;20083;-34
2021/11/27 01:56:26;;;;;;;4.35;1.30;;;;;;;-148.56;100.00;61375.16;5032116;28;20118;-29
2021/11/27 01:58:52;;;;;;;2.63;1.42;;;;;;;-148.56;100.00;61375.16;5014186;28;20515;-33
2021/11/27 02:01:21;;;;;;;2.95;1.38;;;;;;;-148.56;100.00;61375.16;5014673;28;20029;-30
2021/11/27 02:03:47;;;;;;;1.65;1.20;;;;;;;-148.56;100.00;61375.16;5012916;28;20116;-31
2021/11/27 02:06:13;;;;;;;2.72;1.50;;;;;;;-148.56;100.00;61375.16;5025788;28;20041;-29
2021/11/27 02:08:40;;;;;;;4.43;1.30;;;;;;;-148.56;100.00;61375.16;5016201;28;20611;-30
2021/11/27 02:11:06;;;;;;;4.68;1.33;;;;;;;-148.56;100.00;61375.16;5016487;28;20032;-31
2021/11/27 02:13:32;;;;;;;2.95;1.30;;;;;;;-148.56;100.00;61375.16;5016190;28;20032;-32
2021/11/27 02:15:57;;;;;;;3.00;1.40;;;;;;;-148.56;100.00;61375.16;5008985;28;20090;-32
2021/11/27 02:18:23;;;;;;;2.63;1.23;;;;;;;-148.56;100.00;61375.16;5015705;28;20107;-27
2021/11/27 02:20:56;;;;;;;1.80;0.98;;;;;;;-148.56;100.00;61375.16;5017783;28;20032;-31
2021/11/27 02:23:22;;;;;;;2.92;1.35;;;;;;;-148.56;100.00;61375.16;5019116;28;20038;-29
2021/11/27 02:25:47;;;;;;;2.58;1.13;;;;;;;-148.56;100.00;61375.16;5022365;28;20106;-32
2021/11/27 02:28:13;;;;;;;3.03;1.15;;;;;;;-148.56;100.00;61375.16;5015996;28;20045;-32
2021/11/27 02:30:40;;;;;;;2.33;1.23;;;;;;;-148.56;100.00;61375.16;5018399;28;20025;-33
2021/11/27 02:33:06;;;;;;;3.10;1.17;;;;;;;-148.56;100.00;61375.16;5008925;28;20033;-32
2021/11/27 02:35:31;;;;;;;2.28;0.82;;;;;;;-148.56;100.00;61375.16;5015075;28;20036;-38
2021/11/27 02:37:58;;;;;;;2.22;1.13;;;;;;;-148.56;100.00;61375.16;5016730;28;21219;-29
2021/11/27 02:40:24;;;;;;;2.47;1.35;;;;;;;-148.56;100.00;61375.16;5017238;28;20147;-33
2021/11/27 02:42:49;;;;;;;2.63;1.15;;;;;;;-148.56;100.00;61375.16;4999714;28;20025;-32
2021/11/27 02:45:14;;;;;;;3.33;1.42;;;;;;;-148.56;100.00;61375.16;5015802;28;20021;-31
2021/11/27 02:47:40;;;;;;;2.00;1.13;;;;;;;-148.56;100.00;61375.16;5020460;28;20037;-31
2021/11/27 02:50:06;;;;;;;1.73;0.85;;;;;;;-148.56;100.00;61375.16;5023335;28;20424;-31
2021/11/27 02:52:32;;;;;;;3.13;1.00;;;;;;;-148.56;100.00;61375.16;5013425;28;20128;-29
2021/11/27 02:54:58;;;;;;;1.60;0.93;;;;;;;-148.56;100.00;61375.16;5020134;28;20029;-29
2021/11/27 02:57:24;;;;;;;2.55;1.20;;;;;;;-148.56;100.00;61375.16;5014330;28;22530;-33
2021/11/27 02:59:49;;;;;;;2.58;1.20;;;;;;;-148.56;100.00;61375.16;5012908;28;20026;-30
2021/11/27 03:02:15;;;;;;;1.27;0.85;;;;;;;-148.56;100.00;61375.16;5012850;28;20036;-32
2021/11/27 03:04:40;;;;;;;1.98;0.90;;;;;;;-148.56;100.00;61375.16;5021313;28;20051;-30
2021/11/27 03:07:06;;;;;;;2.17;1.00;;;;;;;-148.56;100.00;61375.16;5013731;28;20045;-32
2021/11/27 03:09:32;;;;;;;2.03;0.93;;;;;;;-148.56;100.00;61375.16;5015755;28;20262;-33
2021/11/27 03:11:57;;;;;;;1.20;0.90;;;;;;;-148.56;100.00;61375.16;5015529;28;20799;-29
2021/11/27 03:14:24;;;;;;;2.67;0.95;;;;;;;-148.56;100.00;61375.16;5018355;28;20101;-28
2021/11/27 03:16:49;;;;;;;1.45;1.00;;;;;;;-148.56;100.00;61375.16;5016676;28;20037;-33
2021/11/27 03:19:15;;;;;;;1.67;1.00;;;;;;;-148.56;100.00;61375.16;5017434;28;20036;-28
2021/11/27 03:21:40;;;;;;;1.73;0.90;;;;;;;-148.56;100.00;61375.16;5017530;28;20036;-29
2021/11/27 03:24:06;;;;;;;1.45;1.00;;;;;;;-148.56;100.00;61375.16;5026300;28;20026;-32
2021/11/27 03:26:31;;;;;;;3.10;1.05;;;;;;;-148.56;100.00;61375.16;5020178;28;20041;-30
2021/11/27 03:28:57;;;;;;;1.42;0.85;;;;;;;-148.56;100.00;61375.16;5016308;28;20032;-29
2021/11/27 03:31:22;;;;;;;1.63;1.10;;;;;;;-148.56;100.00;61375.16;5021368;28;20118;-31
2021/11/27 03:33:47;;;;;;;1.90;0.98;;;;;;;-148.56;100.00;61375.16;5012385;28;20040;-27
2021/11/27 03:36:14;;;;;;;2.17;1.02;;;;;;;-148.56;100.00;61375.16;5020996;28;20028;-32
2021/11/27 03:38:39;;;;;;;0.98;0.80;;;;;;;-148.56;100.00;61375.16;5018488;28;20020;-31
2021/11/27 03:41:05;;;;;;;2.80;0.70;;;;;;;-148.56;100.00;61375.16;5017129;28;20036;-30
2021/11/27 03:43:30;;;;;;;1.02;0.63;;;;;;;-148.56;100.00;61375.16;5016258;28;20788;-31
2021/11/27 03:45:56;;;;;;;2.25;0.90;;;;;;;-148.56;100.00;61375.16;5025408;28;20134;-34
2021/11/27 03:48:41;;;;;;;0.90;0.60;;;;;;;-148.56;100.00;61375.16;5012305;28;20061;-31
2021/11/27 03:51:11;;;;;;;1.55;0.80;;;;;;;-148.56;100.00;61375.16;5019934;28;20102;-28
2021/11/27 03:53:38;;;;;;;0.80;0.68;;;;;;;-148.56;100.00;61375.16;5020798;28;20033;-30
2021/11/27 03:56:05;;;;;;;1.50;0.73;;;;;;;-148.56;100.00;61375.16;5019593;28;20025;-29
2021/11/27 03:58:30;;;;;;;2.03;0.90;;;;;;;-148.56;100.00;61375.16;5012389;28;20128;-32
2021/11/27 04:00:56;;;;;;;1.83;1.05;;;;;;;-148.56;100.00;61375.16;5021909;28;21672;-29
2021/11/27 04:03:21;;;;;;;0.80;0.50;;;;;;;-148.56;100.00;61375.16;5019851;28;20033;-34
2021/11/27 04:05:49;;;;;;;1.55;1.00;;;;;;;-148.56;100.00;61375.16;5014598;28;20115;-29
2021/11/27 04:08:15;;;;;;;1.58;0.80;;;;;;;-148.56;100.00;61375.16;5018031;28;20033;-34
2021/11/27 04:10:41;;;;;;;2.22;0.93;;;;;;;-148.56;100.00;61375.16;5016690;28;20514;-31
2021/11/27 04:13:06;;;;;;;0.88;0.77;;;;;;;-148.56;100.00;61375.16;5031074;28;20033;-32
2021/11/27 04:15:32;;;;;;;1.15;0.70;;;;;;;-148.56;100.00;61375.16;5021310;28;20040;-29
2021/11/27 04:17:57;;;;;;;0.73;0.60;;;;;;;-148.56;100.00;61375.16;5019474;28;20565;-30
2021/11/27 04:20:22;;;;;;;0.85;0.85;;;;;;;-148.56;100.00;61375.16;5016863;28;20030;-30
2021/11/27 04:22:48;;;;;;;1.33;0.65;;;;;;;-148.56;100.00;61375.16;5017776;28;20037;-30
2021/11/27 04:25:14;;;;;;;1.70;0.60;;;;;;;-148.56;100.00;61375.16;5018401;28;20548;-33
2021/11/27 04:27:39;;;;;;;0.95;0.70;;;;;;;-148.56;100.00;61375.16;5020462;28;20072;-30
2021/11/27 04:30:09;;;;;;;0.63;0.57;;;;;;;-148.56;100.00;61375.16;5031540;28;20033;-29
2021/11/27 04:32:34;;;;;;;1.45;0.70;;;;;;;-148.56;100.00;61375.16;5027669;28;20127;-30
2021/11/27 04:34:59;;;;;;;2.30;1.00;;;;;;;-148.56;100.00;61375.16;5014252;28;20028;-31
2021/11/27 04:37:25;;;;;;;2.47;0.80;;;;;;;-148.56;100.00;61375.16;5018927;28;20049;-30
2021/11/27 04:39:50;;;;;;;2.15;0.80;;;;;;;-148.56;100.00;61375.16;5018051;28;20094;-31
2021/11/27 04:42:16;;;;;;;1.33;0.75;;;;;;;-148.56;100.00;61375.16;5014470;28;20033;-30
2021/11/27 04:44:41;;;;;;;1.38;0.80;;;;;;;-148.56;100.00;61375.16;5020461;28;20041;-29
2021/11/27 04:47:07;;;;;;;2.28;1.00;;;;;;;-148.56;100.00;61375.16;5021834;28;20029;-30
2021/11/27 04:49:32;;;;;;;0.75;0.55;;;;;;;-148.56;100.00;61375.16;5025627;28;20576;-30
2021/11/27 04:51:58;;;;;;;0.75;0.50;;;;;;;-148.56;100.00;61375.16;5023486;28;20057;-33
2021/11/27 04:54:23;;;;;;;1.75;0.70;;;;;;;-148.56;100.00;61375.16;5015157;28;20032;-32
2021/11/27 04:56:48;;;;;;;3.25;0.80;;;;;;;-148.56;100.00;61375.16;5020331;28;20472;-28
2021/11/27 04:59:14;;;;;;;1.55;0.70;;;;;;;-148.56;100.00;61375.16;5018255;28;20025;-30
2021/11/27 05:01:39;;;;;;;1.15;0.63;;;;;;;-148.56;100.00;61375.16;5016355;28;20691;-30
2021/11/27 05:04:05;;;;;;;4.05;0.82;;;;;;;-148.56;100.00;61375.16;5019395;28;20036;-28
2021/11/27 05:06:31;;;;;;;0.95;0.60;;;;;;;-148.56;100.00;61375.16;5016832;28;20025;-30
2021/11/27 05:08:56;;;;;;;1.35;0.60;;;;;;;-148.56;100.00;61375.16;5023781;28;20167;-32
2021/11/27 05:11:22;;;;;;;0.65;0.50;;;;;;;-148.56;100.00;61375.16;5035289;28;20028;-31
2021/11/27 05:13:47;;;;;;;1.15;0.63;;;;;;;-148.56;100.00;61375.16;5020914;28;20979;-32
2021/11/27 05:16:12;;;;;;;0.60;0.45;;;;;;;-148.56;100.00;61375.16;5032049;28;20598;-32
2021/11/27 05:18:38;;;;;;;0.88;0.60;;;;;;;-148.56;100.00;61375.16;5019479;28;20575;-28
2021/11/27 05:21:03;;;;;;;0.95;0.70;;;;;;;-148.56;100.00;61375.16;5020266;28;20033;-36
2021/11/27 05:23:29;;;;;;;2.72;0.52;;;;;;;-148.56;100.00;61375.16;5014906;28;20747;-29
2021/11/27 05:25:54;;;;;;;0.73;0.70;;;;;;;-148.56;100.00;61375.16;5017689;28;20035;-30
2021/11/27 05:28:20;;;;;;;1.05;0.70;;;;;;;-148.56;100.00;61375.16;5018460;28;20100;-30
2021/11/27 05:30:46;;;;;;;2.97;0.63;;;;;;;-148.56;100.00;61375.16;5017249;28;20057;-32
2021/11/27 05:33:14;;;;;;;1.08;0.70;;;;;;;-148.56;100.00;61375.16;5019950;28;20029;-29
2021/11/27 05:35:39;;;;;;;1.42;0.50;;;;;;;-148.56;100.00;61375.16;5014805;28;20164;-31
2021/11/27 05:38:05;;;;;;;0.63;0.50;;;;;;;-148.56;100.00;61375.16;5009368;28;20434;-27
2021/11/27 05:40:30;;;;;;;3.22;0.68;;;;;;;-148.56;100.00;61375.16;5016044;28;20043;-28
2021/11/27 05:42:56;;;;;;;2.47;0.40;;;;;;;-148.56;100.00;61375.16;5018766;28;20033;-28
2021/11/27 05:45:27;;;;;;;0.50;0.30;;;;;;;-148.56;100.00;61375.16;5018992;28;20658;-32
2021/11/27 05:47:53;;;;;;;1.05;0.60;;;;;;;-148.56;100.00;61375.16;5013582;28;20116;-31
2021/11/27 05:50:19;;;;;;;1.17;0.50;;;;;;;-148.56;100.00;61375.16;5015729;28;20039;-31
2021/11/27 05:52:44;;;;;;;2.50;0.50;;;;;;;-148.56;100.00;61375.16;5015375;28;20033;-33
2021/11/27 05:55:10;;;;;;;0.77;0.43;;;;;;;-148.56;100.00;61375.16;5021905;28;20822;-30
2021/11/27 05:57:35;;;;;;;2.50;0.60;;;;;;;-148.56;100.00;61375.16;5012514;28;20031;-28
2021/11/27 06:00:03;;;;;;;0.40;0.40;;;;;;;-148.56;100.00;61375.16;5013912;28;20119;-30
2021/11/27 06:02:28;;;;;;;0.75;0.57;;;;;;;-148.56;100.00;61375.16;5026382;28;20497;-31
2021/11/27 06:04:54;;;;;;;0.70;0.45;;;;;;;-148.56;100.00;61375.16;5012379;28;20040;-30
2021/11/27 06:07:19;;;;;;;0.90;0.40;;;;;;;-148.56;100.00;61375.16;5009788;28;20036;-28
2021/11/27 06:09:44;;;;;;;1.60;0.68;;;;;;;-148.56;100.00;61375.16;5017163;28;20112;-30
2021/11/27 06:12:10;;;;;;;0.38;0.38;;;;;;;-148.56;100.00;61375.16;5014657;28;20040;-33
2021/11/27 06:14:35;;;;;;;0.45;0.40;;;;;;;-148.56;100.00;61375.16;5014915;28;20098;-29
2021/11/27 06:17:01;;;;;;;0.73;0.40;;;;;;;-148.56;100.00;61375.16;5016548;28;20041;-29
2021/11/27 06:19:27;;;;;;;0.50;0.50;;;;;;;-148.56;100.00;61375.16;5018880;28;20249;-29
2021/11/27 06:21:52;;;;;;;0.57;0.47;;;;;;;-148.56;100.00;61375.16;5015589;28;20452;-28
2021/11/27 06:24:17;;;;;;;0.63;0.50;;;;;;;-148.56;100.00;61375.16;5015291;28;20029;-32
2021/11/27 06:26:43;;;;;;;1.63;0.60;;;;;;;-148.56;100.00;61375.16;5012524;28;20679;-31
2021/11/27 06:29:08;;;;;;;0.73;0.30;;;;;;;-148.56;100.00;61375.16;5019509;28;20029;-32
2021/11/27 06:31:34;;;;;;;1.17;0.47;;;;;;;-148.56;100.00;61375.16;5016009;28;20036;-31
2021/11/27 06:33:59;;;;;;;1.08;0.40;;;;;;;-148.56;100.00;61375.16;5011617;28;20036;-32
2021/11/27 06:36:26;;;;;;;0.90;0.40;;;;;;;-148.56;100.00;61375.16;5006737;28;20032;-30
2021/11/27 06:38:51;;;;;;;0.82;0.45;;;;;;;-148.56;100.00;61375.16;5018077;28;20670;-30
2021/11/27 06:41:17;;;;;;;0.65;0.60;;;;;;;-148.56;100.00;61375.16;5015707;28;20298;-29
2021/11/27 06:43:43;;;;;;;1.70;0.50;;;;;;;-148.56;100.00;61375.16;5016743;28;20032;-30
2021/11/27 06:46:09;;;;;;;0.30;0.30;;;;;;;-148.56;100.00;61375.16;5017064;28;20037;-29
2021/11/27 06:48:34;;;;;;;2.80;0.50;;;;;;;-148.56;100.00;61375.16;5018135;28;20083;-26
2021/11/27 06:51:00;;;;;;;0.75;0.40;;;;;;;-148.56;100.00;61375.16;5024706;28;20523;-32
2021/11/27 06:53:25;;;;;;;0.32;0.30;;;;;;;-148.56;100.00;61375.16;5020122;28;20825;-31
2021/11/27 06:55:50;;;;;;;1.58;0.63;;;;;;;-148.56;100.00;61375.16;5021285;28;20044;-27
2021/11/27 06:58:16;;;;;;;0.57;0.35;;;;;;;-148.56;100.00;61375.16;5017008;28;20036;-30
2021/11/27 07:00:41;;;;;;;1.05;0.60;;;;;;;-148.56;100.00;61375.16;5025302;28;20196;-30
2021/11/27 07:03:07;;;;;;;0.52;0.40;;;;;;;-148.56;100.00;61375.16;5016752;28;21331;-27
2021/11/27 07:05:32;;;;;;;0.30;0.28;;;;;;;-148.56;100.00;61375.16;5023006;28;20045;-28
2021/11/27 07:07:57;;;;;;;1.13;0.40;;;;;;;-148.56;100.00;61375.16;5018843;28;20064;-31
2021/11/27 07:10:23;;;;;;;0.85;0.50;;;;;;;-148.56;100.00;61375.16;5020511;28;20048;-30
2021/11/27 07:12:48;;;;;;;0.85;0.45;;;;;;;-148.56;100.00;61375.16;5020345;28;20515;-33
2021/11/27 07:15:14;;;;;;;0.47;0.30;;;;;;;-148.56;100.00;61375.16;5016456;28;20513;-32
2021/11/27 07:17:40;;;;;;;0.82;0.40;;;;;;;-148.56;100.00;61375.16;5018232;28;20783;-29
2021/11/27 07:20:06;;;;;;;1.15;0.30;;;;;;;-148.56;100.00;61375.16;5022177;28;20115;-28
2021/11/27 07:22:32;;;;;;;0.70;0.50;;;;;;;-148.56;100.00;61375.16;5017341;28;20024;-30
2021/11/27 07:24:57;;;;;;;1.13;0.38;;;;;;;-148.56;100.00;61375.16;5018846;28;20523;-27
2021/11/27 07:27:23;;;;;;;0.30;0.30;;;;;;;-148.56;100.00;61375.16;5017966;28;20087;-32
2021/11/27 07:29:48;;;;;;;0.30;0.30;;;;;;;-148.56;100.00;61375.16;5016062;28;20198;-28
2021/11/27 07:32:14;;;;;;;0.60;0.45;;;;;;;-148.56;100.00;61375.16;5030824;28;20041;-27
2021/11/27 07:34:40;;;;;;;0.32;0.30;;;;;;;-148.56;100.00;61375.16;5016723;28;20043;-28
2021/11/27 07:37:05;;;;;;;0.45;0.40;;;;;;;-148.56;100.00;61375.16;5013660;28;20111;-29
2021/11/27 07:39:31;;;;;;;0.40;0.35;;;;;;;-148.56;100.00;61375.16;5020957;28;20551;-27
2021/11/27 07:41:56;;;;;;;0.30;0.30;;;;;;;-148.56;100.00;61375.16;5023725;28;20060;-34
2021/11/27 07:44:22;;;;;;;0.43;0.30;;;;;;;-148.56;100.00;61375.16;5023198;28;20103;-31
2021/11/27 07:46:53;;;;;;;3.13;0.60;;;;;;;-148.56;100.00;61375.16;5022311;28;20032;-31
2021/11/27 07:49:19;;;;;;;0.35;0.32;;;;;;;-148.56;100.00;61375.16;5021059;28;20020;-32
2021/11/27 07:51:45;;;;;;;3.70;0.40;;;;;;;-148.56;100.00;61375.16;5019553;28;20025;-29
2021/11/27 07:54:10;;;;;;;0.40;0.30;;;;;;;-148.56;100.00;61375.16;5021482;28;20709;-29
2021/11/27 07:56:35;;;;;;;0.80;0.45;;;;;;;-148.56;100.00;61375.16;5019393;28;20054;-32
2021/11/27 07:59:01;;;;;;;5.30;0.75;;;;;;;-148.56;100.00;61375.16;5017431;28;20554;-32
2021/11/27 08:01:26;;;;;;;3.05;0.70;;;;;;;-148.56;100.00;61375.16;5018281;28;23310;-32
2021/11/27 08:03:52;;;;;;;5.38;1.38;;;;;;;-148.56;100.00;61375.16;5015936;28;20029;-29
2021/11/27 08:06:17;;;;;;;3.58;0.70;;;;;;;-148.56;100.00;61375.16;5021104;28;20035;-33
2021/11/27 08:08:43;;;;;;;5.97;0.80;;;;;;;-148.56;100.00;61375.16;5024422;28;20033;-28
2021/11/27 08:11:09;;;;;;;14.10;1.30;;;;;;;-148.56;100.00;61375.16;5024508;28;20029;-29
2021/11/27 08:13:37;;;;;;;3.65;1.13;;;;;;;-148.56;100.00;61375.16;5025330;28;20033;-30
2021/11/27 08:16:02;;;;;;;5.40;1.23;;;;;;;-148.56;100.00;61375.16;5015247;28;20063;-29
2021/11/27 08:18:28;;;;;;;2.78;0.90;;;;;;;-148.56;100.00;61375.16;5024771;28;20246;-30
2021/11/27 08:20:54;;;;;;;3.78;1.75;;;;;;;-148.56;100.00;61375.16;5028054;28;20028;-28
2021/11/27 08:23:19;;;;;;;3.20;1.60;;;;;;;-148.56;100.00;61375.16;5023683;28;20036;-32
2021/11/27 08:25:46;;;;;;;4.25;1.63;;;;;;;-148.56;100.00;61375.16;5027412;28;20037;-30
2021/11/27 08:28:11;;;;;;;4.45;1.42;;;;;;;-148.56;100.00;61375.16;5026163;28;20037;-29
2021/11/27 08:30:36;;;;;;;5.18;1.50;;;;;;;-148.56;100.00;61375.16;5029205;28;20041;-33
2021/11/27 08:33:02;;;;;;;3.63;1.55;;;;;;;-148.56;100.00;61375.16;5024204;28;20030;-29
2021/11/27 08:35:27;;;;;;;3.53;1.80;;;;;;;-148.56;100.00;61375.16;5022661;28;20036;-28
2021/11/27 08:37:53;;;;;;;3.05;1.50;;;;;;;-148.56;100.00;61375.16;5021671;28;20021;-31
2021/11/27 08:40:18;;;;;;;5.97;1.73;;;;;;;-148.56;100.00;61375.16;5020575;28;20040;-33
2021/11/27 08:42:44;;;;;;;4.00;1.60;;;;;;;-148.56;100.00;61375.16;5024779;28;20415;-30
2021/11/27 08:45:09;;;;;;;6.45;1.98;;;;;;;-148.56;100.00;61375.16;5023654;28;20519;-30
2021/11/27 08:47:35;;;;;;;3.72;1.50;;;;;;;-148.56;100.00;61375.16;5037547;28;20044;-31
2021/11/27 08:50:00;;;;;;;6.45;1.60;;;;;;;-148.56;100.00;61375.16;5020872;28;20029;-31
2021/11/27 08:52:26;;;;;;;4.22;1.67;;;;;;;-148.56;100.00;61375.16;5020715;28;20227;-30
2021/11/27 08:54:52;;;;;;;3.30;1.50;;;;;;;-148.56;100.00;61375.16;5037404;28;20378;-33
2021/11/27 08:57:17;;;;;;;7.88;2.20;;;;;;;-148.56;100.00;61375.16;5021528;28;20095;-28
2021/11/27 08:59:42;;;;;;;5.40;1.80;;;;;;;-148.56;100.00;61375.16;5036936;28;20671;-30
2021/11/27 09:02:08;;;;;;;5.30;2.03;;;;;;;-148.56;100.00;61375.16;5025226;28;20032;-30
2021/11/27 09:04:34;;;;;;;5.85;2.00;;;;;;;-148.56;100.00;61375.16;5018288;28;20044;-31
2021/11/27 09:07:00;;;;;;;6.38;1.70;;;;;;;-148.56;100.00;61375.16;5020547;28;20029;-27
2021/11/27 09:09:25;;;;;;;2.97;1.60;;;;;;;-148.56;100.00;61375.16;5009531;28;20026;-29
2021/11/27 09:11:51;;;;;;;2.67;1.50;;;;;;;-148.56;100.00;61375.16;5018230;28;20152;-29
2021/11/27 09:14:17;;;;;;;3.40;1.85;;;;;;;-148.56;100.00;61375.16;5020028;28;20055;-29
2021/11/27 09:16:43;;;;;;;3.63;1.70;;;;;;;-148.56;100.00;61375.16;5023318;28;20056;-30
2021/11/27 09:19:08;;;;;;;3.75;1.77;;;;;;;-148.56;100.00;61375.16;5020187;28;20179;-28
2021/11/27 09:21:34;;;;;;;3.38;1.73;;;;;;;-148.56;100.00;61375.16;5021629;28;21883;-33
2021/11/27 09:24:00;;;;;;;6.15;1.80;;;;;;;-148.56;100.00;61375.16;5002274;28;20505;-29
2021/11/27 09:26:25;;;;;;;4.43;1.90;;;;;;;-148.56;100.00;61375.16;5021916;28;20033;-31
2021/11/27 09:28:51;;;;;;;3.60;1.90;;;;;;;-148.56;100.00;61375.16;5020946;28;20059;-28
2021/11/27 09:31:16;;;;;;;4.70;1.80;;;;;;;-148.56;100.00;61375.16;5017628;28;20086;-32
2021/11/27 09:33:42;;;;;;;2.13;1.30;;;;;;;-148.56;100.00;61375.16;5037103;28;20025;-32
2021/11/27 09:36:10;;;;;;;4.88;1.73;;;;;;;-148.56;100.00;61375.16;5020767;28;20329;-29
2021/11/27 09:38:38;;;;;;;4.80;1.20;;;;;;;-148.56;100.00;61375.16;5018947;28;20550;-31
2021/11/27 09:41:10;;;;;;;7.80;1.70;;;;;;;-148.56;100.00;61375.16;5021236;28;20037;-33
2021/11/27 09:43:37;;;;;;;3.63;1.58;;;;;;;-148.56;100.00;61375.16;5021281;28;20028;-32
2021/11/27 09:46:02;;;;;;;6.95;1.70;;;;;;;-148.56;100.00;61375.16;5019521;28;20017;-31
2021/11/27 09:48:29;;;;;;;13.90;2.40;;;;;;;-148.56;100.00;61375.16;5021497;28;20111;-27
2021/11/27 09:50:54;;;;;;;19.05;2.70;;;;;;;-148.56;100.00;61375.16;5020950;28;20133;-30
2021/11/27 09:53:21;;;;;;;8.18;5.00;;;;;;;-148.56;100.00;61375.16;5035799;28;20028;-30
2021/11/27 09:55:47;;;;;;;2.92;1.67;;;;;;;-148.56;100.00;61375.16;5036491;28;20067;-31
2021/11/27 09:58:12;;;;;;;4.78;1.70;;;;;;;-148.56;100.00;61375.16;5036085;28;20028;-31
2021/11/27 10:00:38;;;;;;;6.28;2.30;;;;;;;-148.56;100.00;61375.16;5025504;28;20025;-29
2021/11/27 10:03:03;;;;;;;5.93;1.90;;;;;;;-148.56;100.00;61375.16;5020229;28;20029;-31
2021/11/27 10:05:29;;;;;;;6.50;1.90;;;;;;;-148.56;100.00;61375.16;5033382;28;20029;-29
2021/11/27 10:07:54;;;;;;;9.30;1.73;;;;;;;-148.56;100.00;61375.16;5019793;28;20048;-30
2021/11/27 10:10:19;;;;;;;6.13;1.42;;;;;;;-148.56;100.00;61375.16;5024621;28;20021;-30
2021/11/27 10:12:45;;;;;;;4.10;1.80;;;;;;;-148.56;100.00;61375.16;5022577;28;20048;-28
2021/11/27 10:15:11;;;;;;;4.88;1.75;;;;;;;-148.56;100.00;61375.16;5022096;28;20475;-29
2021/11/27 10:17:36;;;;;;;3.42;1.60;;;;;;;-148.56;100.00;61375.16;5020849;28;20060;-32
2021/11/27 10:20:04;;;;;;;3.20;1.50;;;;;;;-148.56;100.00;61375.16;5022667;28;21811;-30
2021/11/27 10:22:38;;;;;;;6.00;1.70;;;;;;;-148.56;100.00;61375.16;5020103;28;20040;-29
2021/11/27 10:25:33;;;;;;;4.93;1.60;;;;;;;-148.56;100.00;61375.16;5023504;28;20021;-32
2021/11/27 10:28:07;;;;;;;3.17;1.48;;;;;;;-148.56;100.00;61375.16;5025989;28;20030;-30
2021/11/27 10:30:48;;;;;;;4.07;1.42;;;;;;;-148.56;100.00;61375.16;5023906;28;20123;-32
2021/11/27 10:33:15;;;;;;;2.85;1.52;;;;;;;-148.56;100.00;61375.16;5033288;28;20648;-32
2021/11/27 10:35:55;;;;;;;3.78;1.65;;;;;;;-148.56;100.00;61375.16;5035400;28;20029;-31
2021/11/27 10:38:21;;;;;;;18.00;1.85;;;;;;;-148.56;100.00;61375.16;5022590;28;20028;-30
2021/11/27 10:40:57;;;;;;;8.88;1.63;;;;;;;-148.56;100.00;61375.16;5034188;28;20037;-33
2021/11/27 10:43:22;;;;;;;7.60;2.45;;;;;;;-148.56;100.00;61375.16;5019741;28;20025;-29
2021/11/27 10:45:48;;;;;;;9.20;2.72;;;;;;;-148.56;100.00;61375.16;5038762;28;20029;-29
2021/11/27 10:48:15;;;;;;;11.15;2.70;;;;;;;-148.56;100.00;61375.16;5016283;28;20054;-31
2021/11/27 10:50:47;;;;;;;8.48;2.53;;;;;;;-148.56;100.00;61375.16;5022882;28;20024;-31
2021/11/27 10:53:17;;;;;;;9.15;2.53;;;;;;;-148.56;100.00;61375.16;5023532;28;20028;-31
2021/11/27 10:55:42;;;;;;;7.00;2.33;;;;;;;-148.56;100.00;61375.16;5041355;28;20468;-30
2021/11/27 10:58:09;;;;;;;9.25;2.53;;;;;;;-148.56;100.00;61375.16;5039504;28;20040;-29
2021/11/27 11:00:40;;;;;;;6.63;2.50;;;;;;;-148.56;100.00;61375.16;5042643;28;20021;-32
2021/11/27 11:03:36;;;;;;;7.88;2.33;;;;;;;-148.56;100.00;61375.16;5024797;28;20505;-32
2021/11/27 11:06:21;;;;;;;6.13;2.63;;;;;;;-148.56;100.00;61375.16;5026584;28;20045;-30